METAR stanice u blizini

 

LYBE - Beograd / Surčin, Srbija
Ažurirano: 05/03/2024 08:30
Vedro
Vedro
 Pravac vetra I
Vetar: I 7 km/h
Temperatura: 11°C
Tačka rose: 5°C
Vlažnost: 67%
Pritisak: 1010 hPa
Pregled: Vedro
Vidljivost: greater than 10 km
2024/03/05 07:30 LYBE 050730Z 08004KT 040V110 CAVOK 11/05 Q1010 NOSIG
LYBT - Beograd / Batajnica, Srbija
Ažurirano: 05/03/2024 08:30
Vedro
Vedro
 Pravac vetra ISI
Vetar: ISI 11 km/h
Temperatura: 10°C
Osećaj hladnoće: 8°C
Tačka rose: 6°C
Vlažnost: 76%
Pritisak: 1010 hPa
Pregled: Vedro
Vidljivost: greater than 10 km
2024/03/05 07:30 LYBT 050730Z 06006KT CAVOK 10/06 Q1010 NOSIG
LYVR - Vršac, Srbija
Ažurirano: 05/03/2024 08:30
Few Clouds
Few Clouds
 Pravac vetra varies
Vetar: varies 2 km/h
Temperatura: 9°C
Tačka rose: 4°C
Vlažnost: 71%
Pritisak: 1010 hPa
Oblaci: Few Clouds
Vidljivost: 10 km
Cloud details: Few Clouds 1006 m
2024/03/05 07:30 LYVR 050730Z VRB01KT 9999 FEW033 09/04 Q1010 NOSIG
 
LYKV - Lađevci, Srbija
Ažurirano: 05/03/2024 08:30
Vedro
Vedro
 Pravac vetra varies
Vetar: varies 2 km/h
Temperatura: 7°C
Tačka rose: 7°C
Vlažnost: 100%
Pritisak: 1010 hPa
Pregled: Vedro
Vidljivost: greater than 10 km
2024/03/05 07:30 LYKV 050730Z VRB01KT CAVOK 07/07 Q1010 NOSIG
LYNI - Niš, Srbija
Ažurirano: 05/03/2024 08:30
Few Clouds
Few Clouds
 Pravac vetra SI
Vetar: SI 17 km/h
Temperatura: 11°C
Tačka rose: 5°C
Vlažnost: 67%
Pritisak: 1009 hPa
Oblaci: Few Clouds
Vidljivost: 10 km
Cloud details: Few Clouds 762 m
2024/03/05 07:30 LYNI 050730Z 04009KT 330V100 9999 FEW025 11/05 Q1009 NOSIG
BKPR - Priština, Srbija
Ažurirano: 05/03/2024 08:30
Few Clouds
Few Clouds
 Pravac vetra SSI
Vetar: SSI 31 km/h
Temperatura: 9°C
Osećaj hladnoće: 5°C
Tačka rose: 5°C
Vlažnost: 76%
Pritisak: 1007 hPa
Oblaci: Few Clouds
Vidljivost: 10 km
Cloud details: Few Clouds 1676 m
2024/03/05 07:30 BKPR 050730Z 02017KT 9999 FEW055 09/05 Q1007 NOSIG
 
LHPP - Pecs / Pogany, Hungary
Ažurirano: 05/03/2024 08:15
Vedro
Vedro
 Pravac vetra SI
Vetar: SI 7 km/h
Temperatura: 9°C
Osećaj hladnoće: 8°C
Tačka rose: 5°C
Vlažnost: 76%
Pritisak: 1010 hPa
Pregled: Vedro
Vidljivost: greater than 10 km
2024/03/05 07:15 LHPP 050715Z AUTO 04004KT 360V070 CAVOK 09/05 Q1010
LHUD - Szeged, Hungary
Ažurirano: 04/07/2019 01:45
NOT Current
Vedro
Vedro
 Pravac vetra S
Vetar: S 7 km/h
Temperatura: 18°C
Tačka rose: 13°C
Vlažnost: 73%
Pritisak: 1019 hPa
Pregled: Vedro
Vidljivost: greater than 10 km
2019/07/03 23:45 LHUD 032345Z 35004KT CAVOK 18/13 Q1019
LRTR - Timisoara, Romania
Ažurirano: 05/03/2024 08:30
Vedro
Vedro
 Pravac vetra varies
Vetar: varies 4 km/h
Temperatura: 10°C
Tačka rose: 5°C
Vlažnost: 71%
Pritisak: 1010 hPa
Pregled: Vedro
Vidljivost: greater than 10 km
2024/03/05 07:30 LRTR 050730Z VRB02KT CAVOK 10/05 Q1010
 
LRCV - Craiova, Romania
Ažurirano: 05/03/2024 08:30
Oblačno
Oblačno
 Pravac vetra I
Vetar: I 30 km/h
Temperatura: 6°C
Osećaj hladnoće: 2°C
Tačka rose: 4°C
Vlažnost: 87%
Pritisak: 1010 hPa
Oblaci: Oblačno
Vidljivost: 8 km
Cloud details: Oblačno 213 m
2024/03/05 07:30 LRCV 050730Z 10016KT 8000 OVC007 06/04 Q1010
LBSF - Sofia, Bulgaria
Ažurirano: 05/03/2024 08:30
Mostly Cloudy
Mostly Cloudy
 Pravac vetra JI
Vetar: JI 13 km/h
Temperatura: 10°C
Osećaj hladnoće: 8°C
Tačka rose: 5°C
Vlažnost: 71%
Pritisak: 1007 hPa
Oblaci: Mostly Cloudy
Vidljivost: 10 km
Cloud details: Mostly Cloudy 1006 m
2024/03/05 07:30 LBSF 050730Z 13007KT 9999 BKN033 10/05 Q1007 NOSIG
LWSK - Skoplje, Makedonija
Ažurirano: 05/03/2024 08:50
Mostly Cloudy
Mostly Cloudy
 Pravac vetra ZSZ
Vetar: ZSZ 6 km/h
Temperatura: 10°C
Tačka rose: 10°C
Vlažnost: 100%
Pritisak: 1007 hPa
Oblaci: Mostly Cloudy
Vidljivost: 10 km
Cloud details: Few Clouds 91 m
Partly Cloudy 701 m
Mostly Cloudy 2438 m
2024/03/05 07:50 LWSK 050750Z 29003KT 250V350 9999 FEW003 SCT023 BKN080 10/10 Q1007 NOSIG
 
LYPG - Podgorica, Crna Gora
Ažurirano: 05/03/2024 08:30
Mostly Cloudy
Mostly Cloudy
 Pravac vetra J
Vetar: J 7 km/h
Temperatura: 10°C
Osećaj hladnoće: 9°C
Tačka rose: 8°C
Vlažnost: 88%
Pritisak: 1009 hPa
Oblaci: Mostly Cloudy
Vidljivost: 10 km
Cloud details: Few Clouds 305 m
Partly Cloudy 1036 m
Mostly Cloudy 2134 m
2024/03/05 07:30 LYPG 050730Z 17004KT 9999 FEW010 SCT034 BKN070 10/08 Q1009 NOSIG
LQSA - Sarajevo, Bosna i Hercegovina
Ažurirano: 05/03/2024 08:30
Few Clouds
Few Clouds
 Pravac vetra varies
Vetar: varies 2 km/h
Temperatura: 7°C
Tačka rose: 4°C
Vlažnost: 81%
Pritisak: 1010 hPa
Oblaci: Few Clouds
Vidljivost: 10 km
Cloud details: Few Clouds 1067 m
2024/03/05 07:30 LQSA 050730Z VRB01KT 9999 FEW035 07/04 Q1010 NOSIG
LDOS - Osijek, Hrvatksa
Ažurirano: 05/03/2024 08:30
Partly Cloudy
Partly Cloudy
 Pravac vetra SZ
Vetar: SZ 4 km/h
Temperatura: 6°C
Tačka rose: 4°C
Vlažnost: 87%
Pritisak: 1010 hPa
Oblaci: Partly Cloudy
Vidljivost: 7 km
2024/03/05 07:30 LDOS 050730Z 32002KT 7000 NSC 06/04 Q1010